createdAt,value
2018-09-10T00:04:08.622Z,99.90
2018-09-10T00:06:37.117Z,99.90
2018-09-10T00:09:08.222Z,99.90
2018-09-10T00:11:37.045Z,99.90
2018-09-10T00:14:05.614Z,99.90
2018-09-10T00:16:34.165Z,99.90
2018-09-10T00:19:04.475Z,99.90
2018-09-10T00:21:32.976Z,99.90
2018-09-10T00:24:02.241Z,99.90
2018-09-10T00:26:31.209Z,99.90
2018-09-10T00:28:59.726Z,99.90
2018-09-10T00:31:28.253Z,99.90
2018-09-10T00:33:56.800Z,99.90
2018-09-10T00:36:25.310Z,99.90
2018-09-10T00:38:53.813Z,99.90
2018-09-10T00:41:23.476Z,99.90
2018-09-10T00:43:52.105Z,99.90
2018-09-10T00:46:20.650Z,99.90
2018-09-10T00:48:49.673Z,99.90
2018-09-10T00:51:18.675Z,99.90
2018-09-10T00:53:47.166Z,99.90
2018-09-10T01:01:09.034Z,99.90
2018-09-10T01:03:37.525Z,99.90
2018-09-10T01:06:06.006Z,99.90
2018-09-10T01:08:34.900Z,99.90
2018-09-10T01:11:03.379Z,99.90
2018-09-10T01:13:31.871Z,99.90
2018-09-10T01:16:00.398Z,99.90
2018-09-10T01:18:28.914Z,99.90
2018-09-10T01:20:57.450Z,99.90
2018-09-10T01:23:26.006Z,99.90
2018-09-10T01:25:54.514Z,99.90
2018-09-10T01:28:23.007Z,99.90
2018-09-10T01:30:52.007Z,99.90
2018-09-10T01:33:25.746Z,99.90
2018-09-10T01:35:54.645Z,99.90
2018-09-10T01:38:23.133Z,99.90
2018-09-10T01:40:51.649Z,99.90
2018-09-10T01:43:20.146Z,99.90
2018-09-10T01:45:48.627Z,99.90
2018-09-10T01:48:17.590Z,99.90
2018-09-10T01:50:46.150Z,99.90
2018-09-10T01:58:14.187Z,99.90
2018-09-10T02:00:43.164Z,99.90
2018-09-10T02:03:11.702Z,99.90
2018-09-10T02:05:40.229Z,99.90
2018-09-10T02:08:08.735Z,99.90
2018-09-10T02:10:37.321Z,99.90
2018-09-10T02:13:06.117Z,99.90
2018-09-10T02:15:38.859Z,99.90
2018-09-10T02:18:07.411Z,99.90
2018-09-10T02:20:35.888Z,99.90
2018-09-10T02:23:04.393Z,99.90
2018-09-10T02:25:32.901Z,99.90
2018-09-10T02:28:01.381Z,99.90
2018-09-10T02:30:29.867Z,99.90
2018-09-10T02:32:59.157Z,99.90
2018-09-10T02:35:27.652Z,99.90
2018-09-10T02:37:56.162Z,99.90
2018-09-10T02:40:24.690Z,99.90
2018-09-10T02:42:53.190Z,99.90
2018-09-10T02:45:21.927Z,99.90
2018-09-10T02:47:50.455Z,99.90
2018-09-10T02:50:18.987Z,99.90
2018-09-10T02:52:47.551Z,99.90
2018-09-10T03:00:10.557Z,99.90
2018-09-10T03:02:39.398Z,99.90
2018-09-10T03:05:07.942Z,99.90
2018-09-10T03:18:42.109Z,99.90
2018-09-10T03:21:10.663Z,99.90
2018-09-10T03:23:39.124Z,99.90
2018-09-10T03:26:08.191Z,99.90
2018-09-10T03:28:36.734Z,99.90
2018-09-10T03:31:05.257Z,99.90
2018-09-10T03:33:33.922Z,99.90
2018-09-10T03:36:02.859Z,99.90
2018-09-10T03:38:31.336Z,99.90
2018-09-10T03:40:59.832Z,99.90
2018-09-10T03:43:28.349Z,99.90
2018-09-10T03:45:56.864Z,99.90
2018-09-10T03:48:25.338Z,99.90
2018-09-10T03:50:53.855Z,99.90
2018-09-10T03:53:22.326Z,99.90
2018-09-10T03:55:51.586Z,99.90
2018-09-10T03:58:20.898Z,99.90
2018-09-10T04:00:49.389Z,99.90
2018-09-10T04:03:18.525Z,99.90
2018-09-10T04:05:47.054Z,99.90
2018-09-10T04:13:09.006Z,99.90
2018-09-10T04:15:38.785Z,99.90
2018-09-10T04:18:08.191Z,99.90
2018-09-10T04:20:40.833Z,99.90
2018-09-10T04:23:09.396Z,99.90
2018-09-10T04:25:38.542Z,99.90
2018-09-10T04:28:09.245Z,99.90
2018-09-10T04:30:37.742Z,99.90
2018-09-10T04:33:06.425Z,99.90
2018-09-10T04:35:35.189Z,99.90
2018-09-10T04:38:03.657Z,99.90
2018-09-10T04:40:32.157Z,99.90
2018-09-10T04:43:01.357Z,99.90
2018-09-10T04:45:30.029Z,99.90
2018-09-10T04:47:58.599Z,99.90
2018-09-10T04:50:27.425Z,99.90
2018-09-10T04:52:56.121Z,99.90
2018-09-10T04:55:25.443Z,99.90
2018-09-10T04:57:54.382Z,99.90
2018-09-10T05:00:22.868Z,99.90
2018-09-10T05:02:51.393Z,99.90
2018-09-10T05:05:21.214Z,99.90
2018-09-10T05:07:49.881Z,99.90
2018-09-10T05:10:18.380Z,99.90
2018-09-10T05:12:46.887Z,99.90
2018-09-10T05:20:08.129Z,99.90
2018-09-10T05:22:36.633Z,99.90
2018-09-10T05:25:05.330Z,99.90
2018-09-10T05:27:34.210Z,99.90
2018-09-10T05:30:02.717Z,99.90
2018-09-10T05:32:31.211Z,99.90
2018-09-10T05:35:00.039Z,99.90
2018-09-10T05:37:29.469Z,99.90
2018-09-10T05:39:58.566Z,99.90
2018-09-10T05:42:27.185Z,99.90
2018-09-10T05:44:55.675Z,99.90
2018-09-10T05:47:24.220Z,99.90
2018-09-10T05:49:53.297Z,99.90
2018-09-10T05:52:21.787Z,99.90
2018-09-10T05:54:50.275Z,99.90
2018-09-10T05:57:18.786Z,99.90
2018-09-10T05:59:47.884Z,99.90
2018-09-10T06:02:17.671Z,99.90
2018-09-10T06:04:46.209Z,99.90
2018-09-10T06:12:11.022Z,99.90
2018-09-10T06:14:39.534Z,99.90
2018-09-10T06:17:08.085Z,99.90
2018-09-10T06:19:37.031Z,99.90
2018-09-10T06:22:05.513Z,99.90
2018-09-10T06:24:34.014Z,99.90
2018-09-10T06:27:02.521Z,99.90
2018-09-10T06:29:30.997Z,99.90
2018-09-10T06:31:59.491Z,99.90
2018-09-10T06:34:28.389Z,99.90
2018-09-10T06:36:56.925Z,99.90
2018-09-10T06:39:25.409Z,99.90
2018-09-10T06:41:53.929Z,99.90
2018-09-10T06:44:22.413Z,99.90
2018-09-10T06:46:50.893Z,99.90
2018-09-10T06:49:19.435Z,99.90
2018-09-10T06:51:48.372Z,99.90
2018-09-10T06:54:17.799Z,99.90
2018-09-10T06:56:46.793Z,99.90
2018-09-10T07:04:11.814Z,99.90
2018-09-10T07:06:40.287Z,94.70
2018-09-10T07:09:09.761Z,93.30
2018-09-10T07:11:38.994Z,90.20
2018-09-10T07:14:07.574Z,79.80
2018-09-10T07:16:36.396Z,76.80
2018-09-10T07:19:05.283Z,68.80
2018-09-10T07:21:35.084Z,64.50
2018-09-10T07:24:03.631Z,65.10
2018-09-10T07:26:32.174Z,62.60
2018-09-10T07:29:00.678Z,56.90
2018-09-10T07:31:29.177Z,53.90
2018-09-10T07:33:57.690Z,53.20
2018-09-10T07:36:26.169Z,51.80
2018-09-10T07:38:54.742Z,52.30
2018-09-10T07:41:25.035Z,53.60
2018-09-10T07:43:53.610Z,55.20
2018-09-10T07:46:22.726Z,55.80
2018-09-10T07:48:51.330Z,56.00
2018-09-10T07:51:19.880Z,52.90
2018-09-10T07:53:48.373Z,51.10
2018-09-10T07:56:17.377Z,48.40
2018-09-10T07:58:45.865Z,46.60
2018-09-10T08:06:15.158Z,43.00
2018-09-10T08:08:43.641Z,42.80
2018-09-10T08:11:14.272Z,40.20
2018-09-10T08:13:42.785Z,40.30
2018-09-10T08:16:11.349Z,40.40
2018-09-10T08:18:39.994Z,39.40
2018-09-10T08:21:08.646Z,39.40
2018-09-10T08:23:37.339Z,38.40
2018-09-10T08:26:05.856Z,36.10
2018-09-10T08:28:35.010Z,35.50
2018-09-10T08:31:03.758Z,34.80
2018-09-10T08:33:32.250Z,35.10
2018-09-10T08:36:00.786Z,33.70
2018-09-10T08:38:29.347Z,33.90
2018-09-10T08:40:57.853Z,33.40
2018-09-10T08:43:26.377Z,34.30
2018-09-10T08:45:54.890Z,33.50
2018-09-10T08:48:23.660Z,33.60
2018-09-10T08:50:53.271Z,34.70
2018-09-10T08:53:21.784Z,35.40
2018-09-10T08:55:50.433Z,34.30
2018-09-10T08:58:19.544Z,33.60
2018-09-10T09:00:48.049Z,33.70
2018-09-10T09:03:18.886Z,35.20
2018-09-10T09:05:47.419Z,33.60
2018-09-10T09:08:18.340Z,32.90
2018-09-10T09:10:47.013Z,32.70
2018-09-10T09:18:09.647Z,34.00
2018-09-10T09:20:38.310Z,31.30
2018-09-10T09:23:07.135Z,30.00
2018-09-10T09:25:36.674Z,29.60
2018-09-10T09:28:05.202Z,30.00
2018-09-10T09:30:33.741Z,30.40
2018-09-10T09:33:02.378Z,29.70
2018-09-10T09:35:36.166Z,28.50
2018-09-10T09:38:10.005Z,29.60
2018-09-10T09:40:43.788Z,28.50
2018-09-10T09:43:17.570Z,29.10
2018-09-10T09:45:51.788Z,32.10
2018-09-10T09:48:20.353Z,33.20
2018-09-10T09:50:48.843Z,31.60
2018-09-10T09:53:17.551Z,30.90
2018-09-10T09:55:46.269Z,30.00
2018-09-10T10:03:18.895Z,30.00
2018-09-10T10:05:48.223Z,30.50
2018-09-10T10:08:17.548Z,31.90
2018-09-10T10:10:46.732Z,33.30
2018-09-10T10:18:10.249Z,36.20
2018-09-10T10:20:38.809Z,38.90
2018-09-10T10:23:07.329Z,40.80
2018-09-10T10:25:35.924Z,42.00
2018-09-10T10:28:04.451Z,44.30
2018-09-10T10:30:32.953Z,44.70
2018-09-10T10:33:01.459Z,45.40
2018-09-10T10:35:30.108Z,45.00
2018-09-10T10:37:58.693Z,46.50
2018-09-10T10:40:27.291Z,48.40
2018-09-10T10:42:55.916Z,49.10
2018-09-10T10:45:24.461Z,47.20
2018-09-10T10:47:53.010Z,49.70
2018-09-10T10:50:21.507Z,49.40
2018-09-10T10:52:50.013Z,48.50
2018-09-10T10:55:18.790Z,50.70
2018-09-10T10:57:47.833Z,48.50
2018-09-10T11:00:17.449Z,49.80
2018-09-10T11:02:46.522Z,49.90
2018-09-10T11:10:14.950Z,52.90
2018-09-10T11:12:44.605Z,49.70
2018-09-10T11:15:13.782Z,49.90
2018-09-10T11:17:42.295Z,49.90
2018-09-10T11:20:11.117Z,50.80
2018-09-10T11:22:39.598Z,50.00
2018-09-10T11:25:08.502Z,51.10
2018-09-10T11:27:37.025Z,48.30
2018-09-10T11:30:06.050Z,49.20
2018-09-10T11:32:34.925Z,49.70
2018-09-10T11:35:03.471Z,49.60
2018-09-10T11:37:32.710Z,51.90
2018-09-10T11:40:01.408Z,51.90
2018-09-10T11:42:29.881Z,52.20
2018-09-10T11:44:58.326Z,51.30
2018-09-10T11:47:27.205Z,49.50
2018-09-10T11:49:56.170Z,50.40
2018-09-10T11:52:24.626Z,49.10
2018-09-10T11:54:53.200Z,49.00
2018-09-10T11:57:21.654Z,50.80
2018-09-10T11:59:50.423Z,49.20
2018-09-10T12:02:18.964Z,49.60
2018-09-10T12:04:47.476Z,50.00
2018-09-10T12:07:17.441Z,49.90
2018-09-10T12:09:46.006Z,50.20
2018-09-10T12:17:08.917Z,48.30
2018-09-10T12:19:37.616Z,50.20
2018-09-10T12:22:06.149Z,49.50
2018-09-10T12:24:34.641Z,47.40
2018-09-10T12:27:03.268Z,47.30
2018-09-10T12:29:31.735Z,46.90
2018-09-10T12:32:00.793Z,47.60
2018-09-10T12:34:29.286Z,46.90
2018-09-10T12:36:57.926Z,48.00
2018-09-10T12:39:26.468Z,48.40
2018-09-10T12:41:55.310Z,49.30
2018-09-10T12:44:23.848Z,48.40
2018-09-10T12:46:52.374Z,48.40
2018-09-10T12:49:21.028Z,48.90
2018-09-10T12:51:49.691Z,48.80
2018-09-10T12:54:18.517Z,48.30
2018-09-10T12:56:47.405Z,46.80
2018-09-10T12:59:17.396Z,45.90
2018-09-10T13:01:45.970Z,45.50
2018-09-10T13:09:12.358Z,44.90
2018-09-10T13:11:40.883Z,45.30
2018-09-10T13:14:09.378Z,43.90
2018-09-10T13:16:38.170Z,44.50
2018-09-10T13:19:07.408Z,46.40
2018-09-10T13:21:36.119Z,45.80
2018-09-10T13:24:04.689Z,46.10
2018-09-10T13:26:33.170Z,45.50
2018-09-10T13:29:01.638Z,45.30
2018-09-10T13:31:30.152Z,47.00
2018-09-10T13:33:58.641Z,46.70
2018-09-10T13:36:27.150Z,47.30
2018-09-10T13:38:55.937Z,47.40
2018-09-10T13:41:24.403Z,47.90
2018-09-10T13:43:52.885Z,47.90
2018-09-10T13:46:22.930Z,47.90
2018-09-10T13:48:51.406Z,48.00
2018-09-10T13:51:19.874Z,47.70
2018-09-10T13:53:48.391Z,48.00
2018-09-10T13:56:17.400Z,46.50
2018-09-10T13:58:45.866Z,46.40
2018-09-10T14:06:14.674Z,47.90
2018-09-10T14:08:43.130Z,48.20
2018-09-10T14:11:11.618Z,48.10
2018-09-10T14:13:40.162Z,48.50
2018-09-10T14:16:08.623Z,49.10
2018-09-10T14:18:37.113Z,49.20
2018-09-10T14:21:06.361Z,48.30
2018-09-10T14:23:34.821Z,49.00
2018-09-10T14:26:03.827Z,49.50
2018-09-10T14:28:33.097Z,48.10
2018-09-10T14:31:01.838Z,47.20
2018-09-10T14:33:30.326Z,46.70
2018-09-10T14:35:59.058Z,47.80
2018-09-10T14:38:27.577Z,47.50
2018-09-10T14:40:56.041Z,47.50
2018-09-10T14:43:24.541Z,47.80
2018-09-10T14:45:55.035Z,47.70
2018-09-10T14:48:23.501Z,47.60
2018-09-10T14:50:52.702Z,48.50
2018-09-10T14:53:21.185Z,46.90
2018-09-10T14:55:49.654Z,47.30
2018-09-10T14:58:18.333Z,46.30
2018-09-10T15:00:46.801Z,45.90
2018-09-10T15:08:12.685Z,45.70
2018-09-10T15:10:41.217Z,46.60
2018-09-10T15:13:09.706Z,46.40
2018-09-10T15:15:38.243Z,45.80
2018-09-10T15:18:06.716Z,46.00
2018-09-10T15:20:35.251Z,46.10
2018-09-10T15:23:03.839Z,46.50
2018-09-10T15:25:32.346Z,46.30
2018-09-10T15:28:01.194Z,46.20
2018-09-10T15:30:29.916Z,47.50
2018-09-10T15:32:58.382Z,48.70
2018-09-10T15:35:27.183Z,49.30
2018-09-10T15:37:55.725Z,48.70
2018-09-10T15:40:24.418Z,48.50
2018-09-10T15:42:54.153Z,48.40
2018-09-10T15:45:22.806Z,48.80
2018-09-10T15:47:51.265Z,49.00
2018-09-10T15:50:19.760Z,50.00
2018-09-10T15:52:49.733Z,49.60
2018-09-10T15:55:18.406Z,51.10
2018-09-10T15:57:47.139Z,50.00
2018-09-10T16:00:17.558Z,50.30
2018-09-10T16:02:46.117Z,49.60
2018-09-10T16:10:14.180Z,49.40
2018-09-10T16:12:43.206Z,49.30
2018-09-10T16:15:11.730Z,49.50
2018-09-10T16:17:40.254Z,49.80
2018-09-10T16:20:08.712Z,49.30
2018-09-10T16:22:37.646Z,49.10
2018-09-10T16:25:06.256Z,49.90
2018-09-10T16:27:34.774Z,49.80
2018-09-10T16:30:04.057Z,51.00
2018-09-10T16:32:32.937Z,51.80
2018-09-10T16:35:01.427Z,52.50
2018-09-10T16:37:29.910Z,53.30
2018-09-10T16:39:58.441Z,53.90
2018-09-10T16:42:26.963Z,54.10
2018-09-10T16:44:56.030Z,54.60
2018-09-10T16:47:24.601Z,54.80
2018-09-10T16:49:53.201Z,55.50
2018-09-10T16:52:21.715Z,56.00
2018-09-10T16:54:50.531Z,56.80
2018-09-10T16:57:21.332Z,57.70
2018-09-10T16:59:49.817Z,58.20
2018-09-10T17:02:18.367Z,59.10
2018-09-10T17:04:47.892Z,59.70
2018-09-10T17:07:17.321Z,60.40
2018-09-10T17:09:45.886Z,60.00
2018-09-10T17:17:11.863Z,59.90
2018-09-10T17:19:40.596Z,62.20
2018-09-10T17:22:09.305Z,62.70
2018-09-10T17:24:39.020Z,64.00
2018-09-10T17:27:07.641Z,65.20
2018-09-10T17:29:36.737Z,66.30
2018-09-10T17:32:05.246Z,64.20
2018-09-10T17:34:33.737Z,64.80
2018-09-10T17:37:02.265Z,65.70
2018-09-10T17:39:30.820Z,66.90
2018-09-10T17:41:59.317Z,67.40
2018-09-10T17:44:27.798Z,64.60
2018-09-10T17:46:57.018Z,66.20
2018-09-10T17:49:25.996Z,67.70
2018-09-10T17:51:55.203Z,66.70
2018-09-10T17:54:24.146Z,67.20
2018-09-10T17:56:52.680Z,66.20
2018-09-10T17:59:23.099Z,66.60
2018-09-10T18:01:52.178Z,67.80
2018-09-10T18:04:20.688Z,69.20
2018-09-10T18:06:49.405Z,70.60
2018-09-10T18:09:19.029Z,71.60
2018-09-10T18:11:47.760Z,72.30
2018-09-10T18:14:17.439Z,72.30
2018-09-10T18:16:45.977Z,74.10
2018-09-10T18:24:12.248Z,73.40
2018-09-10T18:26:41.786Z,76.50
2018-09-10T18:29:10.278Z,77.40
2018-09-10T18:31:39.029Z,77.10
2018-09-10T18:34:07.605Z,80.80
2018-09-10T18:36:37.437Z,81.00
2018-09-10T18:39:08.902Z,82.20
2018-09-10T18:41:37.418Z,83.30
2018-09-10T18:44:05.969Z,82.60
2018-09-10T18:46:34.688Z,83.50
2018-09-10T18:49:03.222Z,84.60
2018-09-10T18:51:31.686Z,85.40
2018-09-10T18:54:00.317Z,85.70
2018-09-10T18:56:28.921Z,86.00
2018-09-10T18:58:57.426Z,86.60
2018-09-10T19:01:26.927Z,87.40
2018-09-10T19:03:55.333Z,89.30
2018-09-10T19:06:24.035Z,90.10
2018-09-10T19:08:52.759Z,90.60
2018-09-10T19:11:21.509Z,91.10
2018-09-10T19:13:49.987Z,91.60
2018-09-10T19:16:18.954Z,92.00
2018-09-10T19:18:47.433Z,92.70
2018-09-10T19:21:17.367Z,93.30
2018-09-10T19:23:46.336Z,94.10
2018-09-10T19:31:14.581Z,95.50
2018-09-10T19:33:43.106Z,96.50
2018-09-10T19:36:11.728Z,96.80
2018-09-10T19:38:40.358Z,97.10
2018-09-10T19:41:08.836Z,97.90
2018-09-10T19:43:37.769Z,98.20
2018-09-10T19:46:07.131Z,98.50
2018-09-10T19:48:36.294Z,98.70
2018-09-10T19:51:05.225Z,98.70
2018-09-10T19:53:33.906Z,98.80
2018-09-10T19:56:02.687Z,99.10
2018-09-10T19:58:31.146Z,99.50
2018-09-10T20:00:59.687Z,99.70
2018-09-10T20:03:28.178Z,99.70
2018-09-10T20:05:56.711Z,99.80
2018-09-10T20:08:25.253Z,99.90
2018-09-10T20:10:53.922Z,99.90
2018-09-10T20:13:22.657Z,99.90
2018-09-10T20:15:51.357Z,99.90
2018-09-10T20:18:20.179Z,99.90
2018-09-10T20:20:48.683Z,99.90
2018-09-10T20:23:17.400Z,99.90
2018-09-10T20:25:47.083Z,99.90
2018-09-10T20:35:37.790Z,99.90
2018-09-10T20:38:06.306Z,99.70
2018-09-10T20:40:34.809Z,99.90
2018-09-10T20:43:03.286Z,99.60
2018-09-10T20:45:31.794Z,99.90
2018-09-10T20:48:00.378Z,99.90
2018-09-10T20:50:28.882Z,99.90
2018-09-10T20:52:57.373Z,99.90
2018-09-10T20:55:26.871Z,99.90
2018-09-10T20:57:55.966Z,99.90
2018-09-10T21:00:24.447Z,99.90
2018-09-10T21:02:53.210Z,99.90
2018-09-10T21:05:21.714Z,99.90
2018-09-10T21:07:50.211Z,99.90
2018-09-10T21:10:18.714Z,99.90
2018-09-10T21:12:47.184Z,99.90
2018-09-10T21:15:17.401Z,99.90
2018-09-10T21:17:47.609Z,99.90
2018-09-10T21:20:17.445Z,99.90
2018-09-10T21:22:45.933Z,99.90
2018-09-10T21:30:08.205Z,99.90
2018-09-10T21:32:36.673Z,99.90
2018-09-10T21:35:06.150Z,99.90
2018-09-10T21:37:34.849Z,99.90
2018-09-10T21:40:03.378Z,99.90
2018-09-10T21:42:31.938Z,99.90
2018-09-10T21:45:00.538Z,99.90
2018-09-10T21:47:29.024Z,99.90
2018-09-10T21:49:57.585Z,99.90
2018-09-10T21:52:26.107Z,99.90
2018-09-10T21:54:54.597Z,99.90
2018-09-10T21:57:23.116Z,99.90
2018-09-10T21:59:52.069Z,99.90
2018-09-10T22:02:20.546Z,99.90
2018-09-10T22:04:49.014Z,99.90
2018-09-10T22:07:19.256Z,99.90
2018-09-10T22:09:47.758Z,99.90
2018-09-10T22:12:17.374Z,99.90
2018-09-10T22:14:45.952Z,99.90
2018-09-10T22:22:13.171Z,99.90
2018-09-10T22:24:42.199Z,99.90
2018-09-10T22:27:10.637Z,99.90
2018-09-10T22:29:39.155Z,99.90
2018-09-10T22:32:08.676Z,99.90
2018-09-10T22:34:37.174Z,99.90
2018-09-10T22:37:06.348Z,99.90
2018-09-10T22:39:34.865Z,99.90
2018-09-10T22:42:03.346Z,99.90
2018-09-10T22:44:32.505Z,99.90
2018-09-10T22:47:00.981Z,99.90
2018-09-10T22:49:29.501Z,99.90
2018-09-10T22:51:58.018Z,99.90
2018-09-10T22:54:26.509Z,99.90
2018-09-10T22:56:55.211Z,99.90
2018-09-10T22:59:23.715Z,99.90
2018-09-10T23:01:52.175Z,99.90
2018-09-10T23:04:20.729Z,99.90
2018-09-10T23:06:49.369Z,99.90
2018-09-10T23:09:17.862Z,99.90
2018-09-10T23:11:46.362Z,99.90
2018-09-10T23:19:09.026Z,99.90
2018-09-10T23:21:38.664Z,99.90
2018-09-10T23:24:07.265Z,99.90
2018-09-10T23:26:35.806Z,99.90
2018-09-10T23:29:04.307Z,99.90
2018-09-10T23:31:33.156Z,99.90
2018-09-10T23:34:01.651Z,99.90
2018-09-10T23:36:30.177Z,99.90
2018-09-10T23:38:59.251Z,99.90
2018-09-10T23:41:27.806Z,99.90
2018-09-10T23:43:56.436Z,99.90
2018-09-10T23:46:24.908Z,99.90
2018-09-10T23:48:53.714Z,99.90
2018-09-10T23:51:22.202Z,99.90
2018-09-10T23:53:50.697Z,99.90
2018-09-10T23:56:19.896Z,99.90
2018-09-10T23:58:48.400Z,99.90
